Time;durP1;ratioP1;P1;durP2;ratioP2;P2;SDS_P1;SDS_P2;PMS_P1;PMS_P2;Temp;Humidity;BMP_temperature;BMP_pressure;BME280_temperature;BME280_humidity;BME280_pressure;Samples;Min_cycle;Max_cycle;Signal;HPM_P1;HPM_P2
2022/04/01 00:01:56;;;;;;;8.60;6.80;;;7.60;99.90;;;;;;5024846;28;20680;-88
2022/04/01 00:04:23;;;;;;;7.57;6.10;;;7.50;99.90;;;;;;5028325;28;20213;-89
2022/04/01 00:06:50;;;;;;;8.67;6.40;;;7.40;99.90;;;;;;5027356;28;20226;-89
2022/04/01 00:09:19;;;;;;;7.33;5.63;;;7.40;99.90;;;;;;5029107;28;20210;-88
2022/04/01 00:11:46;;;;;;;9.63;5.88;;;7.30;99.90;;;;;;5045125;28;20215;-88
2022/04/01 00:14:14;;;;;;;6.70;5.97;;;7.30;99.90;;;;;;5036247;28;20591;-90
2022/04/01 00:16:42;;;;;;;8.97;5.87;;;7.30;99.90;;;;;;5022596;28;20267;-88
2022/04/01 00:19:09;;;;;;;7.20;6.00;;;7.20;99.90;;;;;;5008904;28;20287;-88
2022/04/01 00:21:36;;;;;;;6.83;6.10;;;7.30;99.90;;;;;;5023479;28;20231;-88
2022/04/01 00:24:04;;;;;;;6.68;5.95;;;7.50;99.90;;;;;;5023325;28;20200;-88
2022/04/01 00:29:17;;;;;;;7.30;6.07;;;7.50;99.90;;;;;;5022795;28;20234;-88
2022/04/01 00:31:45;;;;;;;5.93;5.33;;;7.60;99.90;;;;;;5017077;28;20259;-89
2022/04/01 00:36:54;;;;;;;4.17;3.77;;;7.60;99.90;;;;;;5025535;28;20269;-88
2022/04/01 00:39:22;;;;;;;3.83;3.43;;;7.30;99.90;;;;;;5002469;28;20204;-88
2022/04/01 00:42:07;;;;;;;4.00;3.30;;;7.10;99.90;;;;;;5022802;28;20227;-88
2022/04/01 00:44:38;;;;;;;3.60;3.30;;;7.10;99.90;;;;;;5013205;28;20287;-88
2022/04/01 00:47:07;;;;;;;3.63;3.23;;;7.00;99.90;;;;;;5021108;28;20697;-88
2022/04/01 00:49:35;;;;;;;3.90;3.50;;;7.10;99.90;;;;;;5022336;28;20223;-88
2022/04/01 00:52:07;;;;;;;4.07;3.60;;;7.10;99.90;;;;;;5022261;28;20231;-88
2022/04/01 00:54:38;;;;;;;5.13;4.10;;;7.00;99.90;;;;;;5019276;28;20259;-88
2022/04/01 00:57:13;;;;;;;5.97;3.97;;;7.00;99.90;;;;;;5020975;28;20209;-90
2022/04/01 00:59:41;;;;;;;4.83;4.07;;;7.00;99.90;;;;;;5021992;28;20230;-89
2022/04/01 01:02:10;;;;;;;6.37;4.67;;;7.10;99.90;;;;;;5021197;28;20518;-88
2022/04/01 01:04:38;;;;;;;4.87;4.37;;;7.00;99.90;;;;;;5017031;28;20250;-88
2022/04/01 01:07:06;;;;;;;5.20;4.70;;;7.10;99.90;;;;;;5023609;28;20231;-88
2022/04/01 01:09:34;;;;;;;5.00;4.60;;;7.20;99.90;;;;;;5022943;28;20278;-89
2022/04/01 01:12:01;;;;;;;5.17;4.67;;;7.20;99.90;;;;;;5021071;28;20204;-88
2022/04/01 01:14:34;;;;;;;4.80;4.40;;;7.20;99.90;;;;;;5022489;28;20299;-88
2022/04/01 01:17:02;;;;;;;6.03;4.87;;;7.20;99.90;;;;;;5014034;28;20210;-89
2022/04/01 01:19:31;;;;;;;5.27;4.77;;;7.30;99.90;;;;;;5019703;28;20253;-89
2022/04/01 01:21:59;;;;;;;5.07;4.43;;;7.20;99.90;;;;;;5032426;28;20267;-88
2022/04/01 01:24:30;;;;;;;4.90;4.40;;;7.10;99.90;;;;;;5022521;28;20207;-89
2022/04/01 01:26:58;;;;;;;5.10;4.27;;;7.10;99.90;;;;;;5016271;28;20277;-88
2022/04/01 01:29:27;;;;;;;5.80;4.53;;;7.10;99.90;;;;;;5023088;28;20295;-88
2022/04/01 01:31:55;;;;;;;5.60;4.73;;;7.00;99.90;;;;;;5023165;28;20227;-89
2022/04/01 01:34:33;;;;;;;5.67;4.60;;;7.10;99.90;;;;;;5023656;28;20206;-89
2022/04/01 01:37:02;;;;;;;5.13;4.47;;;7.10;99.90;;;;;;5024354;28;20699;-88
2022/04/01 01:42:35;;;;;;;4.80;4.00;;;7.10;99.90;;;;;;5018165;28;20203;-88
2022/04/01 01:45:02;;;;;;;4.37;3.97;;;7.10;99.90;;;;;;5002338;28;20235;-90
2022/04/01 01:47:29;;;;;;;6.07;4.57;;;7.10;99.90;;;;;;5021460;28;20199;-90
2022/04/01 01:55:29;;;;;;;5.60;4.57;;;6.80;99.90;;;;;;5025686;28;20233;-88
2022/04/01 01:57:56;;;;;;;5.93;5.00;;;6.70;99.90;;;;;;5016885;28;20203;-88
2022/04/01 02:00:24;;;;;;;5.30;4.80;;;6.70;99.90;;;;;;5038040;28;20231;-90
2022/04/01 02:02:51;;;;;;;8.80;4.80;;;6.70;99.90;;;;;;5020186;28;20191;-88
2022/04/01 02:05:19;;;;;;;5.67;5.07;;;6.70;99.90;;;;;;5018559;28;20225;-89
2022/04/01 02:07:47;;;;;;;5.57;4.97;;;6.60;99.90;;;;;;5009372;28;20221;-88
2022/04/01 02:10:17;;;;;;;5.47;4.73;;;6.70;99.90;;;;;;5017288;28;20613;-89
2022/04/01 02:12:46;;;;;;;5.20;4.70;;;6.70;99.90;;;;;;5021285;28;20298;-88
2022/04/01 02:15:13;;;;;;;5.87;5.00;;;6.80;99.90;;;;;;5021113;28;20237;-88
2022/04/01 02:17:41;;;;;;;5.70;5.10;;;6.70;99.90;;;;;;5020148;28;20238;-89
2022/04/01 02:20:10;;;;;;;5.97;4.70;;;6.80;99.90;;;;;;5020698;28;20242;-89
2022/04/01 02:22:37;;;;;;;5.30;4.80;;;6.70;99.90;;;;;;5021521;28;20261;-87
2022/04/01 02:25:07;;;;;;;6.87;4.77;;;6.70;99.90;;;;;;5018113;28;20239;-88
2022/04/01 02:27:35;;;;;;;5.77;5.17;;;6.80;99.90;;;;;;5024186;28;20234;-88
2022/04/01 02:30:10;;;;;;;5.13;4.63;;;6.80;99.90;;;;;;5012179;28;20243;-89
2022/04/01 02:32:40;;;;;;;5.30;4.80;;;6.80;99.90;;;;;;5021288;28;20271;-89
2022/04/01 02:35:08;;;;;;;5.40;4.30;;;6.80;99.90;;;;;;5023119;28;20223;-89
2022/04/01 02:37:36;;;;;;;5.20;4.33;;;6.60;99.90;;;;;;5020259;28;20203;-89
2022/04/01 02:40:05;;;;;;;4.03;3.60;;;6.50;99.90;;;;;;5015316;28;20712;-88
2022/04/01 02:42:32;;;;;;;3.60;3.30;;;6.50;99.90;;;;;;5018590;28;20291;-88
2022/04/01 02:44:59;;;;;;;3.97;3.50;;;6.40;99.90;;;;;;5017114;28;20238;-89
2022/04/01 02:47:38;;;;;;;3.80;3.30;;;6.10;99.90;;;;;;5004099;28;20207;-89
2022/04/01 02:50:07;;;;;;;3.33;3.00;;;6.10;99.90;;;;;;5021802;28;20231;-88
2022/04/01 02:52:34;;;;;;;3.40;3.10;;;6.00;99.90;;;;;;5035519;28;20229;-88
2022/04/01 02:55:01;;;;;;;4.10;3.60;;;6.00;99.90;;;;;;5028431;28;20233;-88
2022/04/01 02:57:29;;;;;;;3.40;3.10;;;6.00;99.90;;;;;;5021291;28;20290;-91
2022/04/01 02:59:56;;;;;;;3.63;3.30;;;5.90;99.90;;;;;;5027645;28;20234;-87
2022/04/01 03:02:23;;;;;;;3.80;3.40;;;5.60;99.90;;;;;;5037013;28;20205;-88
2022/04/01 03:04:52;;;;;;;3.77;3.23;;;5.70;99.90;;;;;;5029434;28;20222;-88
2022/04/01 03:07:20;;;;;;;3.03;2.73;;;5.60;99.90;;;;;;5020024;28;20199;-86
2022/04/01 03:09:46;;;;;;;3.03;2.73;;;5.70;99.90;;;;;;5011744;28;20226;-86
2022/04/01 03:12:14;;;;;;;2.70;2.50;;;5.50;99.90;;;;;;5017465;28;20206;-85
2022/04/01 03:14:41;;;;;;;3.63;3.03;;;5.40;99.90;;;;;;4990844;28;20302;-86
2022/04/01 03:17:08;;;;;;;3.00;2.70;;;5.60;99.90;;;;;;5024715;28;20199;-85
2022/04/01 03:19:36;;;;;;;3.17;2.70;;;5.50;99.90;;;;;;5023447;28;20317;-85
2022/04/01 03:22:05;;;;;;;2.70;2.50;;;5.60;99.90;;;;;;5017384;28;20717;-85
2022/04/01 03:24:32;;;;;;;3.63;3.10;;;5.70;99.90;;;;;;5021732;28;20281;-86
2022/04/01 03:26:59;;;;;;;2.77;2.50;;;5.70;99.90;;;;;;5022218;28;20234;-86
2022/04/01 03:29:27;;;;;;;2.40;2.20;;;5.60;99.90;;;;;;5014484;28;20219;-86
2022/04/01 03:31:54;;;;;;;2.60;2.40;;;5.50;99.70;;;;;;5017944;28;20203;-86
2022/04/01 03:34:22;;;;;;;2.70;2.07;;;5.40;99.90;;;;;;5021148;28;20211;-87
2022/04/01 03:36:49;;;;;;;3.70;2.33;;;5.40;99.50;;;;;;5022647;28;20281;-87
2022/04/01 03:39:19;;;;;;;2.73;2.40;;;5.30;99.50;;;;;;5023020;28;20205;-86
2022/04/01 03:41:46;;;;;;;2.50;2.30;;;5.20;99.90;;;;;;5023816;28;20585;-86
2022/04/01 03:44:13;;;;;;;2.70;2.50;;;5.10;99.80;;;;;;5017511;28;20199;-86
2022/04/01 03:46:48;;;;;;;2.20;2.00;;;5.20;99.90;;;;;;5022738;28;20282;-86
2022/04/01 03:49:21;;;;;;;2.60;2.40;;;5.40;99.90;;;;;;5022624;28;20564;-86
2022/04/01 03:51:51;;;;;;;2.47;2.27;;;5.30;99.50;;;;;;5022924;28;20274;-87
2022/04/01 03:54:20;;;;;;;2.50;2.30;;;5.20;99.30;;;;;;5012554;28;20305;-88
2022/04/01 03:56:56;;;;;;;2.50;2.30;;;5.10;99.10;;;;;;5019196;28;20212;-87
2022/04/01 04:02:07;;;;;;;2.27;2.07;;;5.00;99.10;;;;;;5016551;28;20199;-87
2022/04/01 04:04:39;;;;;;;2.60;2.40;;;5.00;99.90;;;;;;5023974;28;20286;-86
2022/04/01 04:07:09;;;;;;;2.30;2.13;;;5.00;99.40;;;;;;5022769;28;20210;-89
2022/04/01 04:12:22;;;;;;;2.60;2.40;;;4.70;99.50;;;;;;5032818;28;20183;-87
2022/04/01 04:14:53;;;;;;;2.70;2.37;;;4.80;99.90;;;;;;5033549;28;20306;-86
2022/04/01 04:17:30;;;;;;;2.50;2.30;;;4.80;99.60;;;;;;5021754;28;20244;-86
2022/04/01 04:20:09;;;;;;;2.50;2.30;;;4.80;99.80;;;;;;5021939;28;20239;-86
2022/04/01 04:22:50;;;;;;;2.57;2.37;;;4.80;99.90;;;;;;5022118;28;20199;-88
2022/04/01 04:28:12;;;;;;;2.20;2.00;;;4.90;99.00;;;;;;5016513;28;20258;-88
2022/04/01 04:30:49;;;;;;;2.83;2.63;;;4.70;98.80;;;;;;5021009;28;20234;-88
2022/04/01 04:33:18;;;;;;;2.60;2.40;;;4.60;99.70;;;;;;5025356;28;20214;-86
2022/04/01 04:35:50;;;;;;;2.60;2.40;;;4.60;99.70;;;;;;5022438;28;20674;-86
2022/04/01 04:38:20;;;;;;;2.47;2.27;;;4.70;99.90;;;;;;5024559;28;20207;-86
2022/04/01 04:43:33;;;;;;;2.40;2.20;;;4.60;99.20;;;;;;5008616;28;20200;-89
2022/04/01 04:46:00;;;;;;;2.50;2.30;;;4.60;98.60;;;;;;5021106;28;20246;-88
2022/04/01 04:48:28;;;;;;;2.47;2.20;;;4.50;99.10;;;;;;5023073;28;20207;-88
2022/04/01 04:51:02;;;;;;;3.73;2.30;;;4.40;99.00;;;;;;5011961;28;20233;-89
2022/04/01 04:53:34;;;;;;;2.60;2.20;;;4.30;99.30;;;;;;5017657;28;20219;-89
2022/04/01 04:56:05;;;;;;;2.10;1.90;;;4.10;99.40;;;;;;5016277;28;20223;-88
2022/04/01 04:58:39;;;;;;;2.40;2.20;;;4.20;99.50;;;;;;5023535;28;20235;-87
2022/04/01 05:01:17;;;;;;;2.20;2.00;;;4.20;99.10;;;;;;5020553;28;20686;-90
2022/04/01 05:04:12;;;;;;;2.00;1.90;;;4.20;98.90;;;;;;5022069;28;20207;-90
2022/04/01 05:06:42;;;;;;;2.10;1.90;;;4.00;99.00;;;;;;5022898;28;20227;-90
2022/04/01 05:12:07;;;;;;;2.30;2.00;;;3.70;98.90;;;;;;5010278;28;20234;-87
2022/04/01 05:14:49;;;;;;;3.10;2.27;;;3.80;99.90;;;;;;5025368;28;20227;-88
2022/04/01 05:17:26;;;;;;;2.37;2.17;;;3.80;99.20;;;;;;5023673;28;20199;-88
2022/04/01 05:22:59;;;;;;;2.60;2.40;;;3.90;99.20;;;;;;5023678;28;20226;-90
2022/04/01 05:33:41;;;;;;;2.63;2.27;;;3.80;99.90;;;;;;5757238;22;20253;-89
2022/04/01 05:36:51;;;;;;;2.53;2.23;;;3.90;99.40;;;;;;5017254;28;20219;-88
2022/04/01 05:39:20;;;;;;;2.03;1.90;;;4.00;99.20;;;;;;5037375;28;20205;-88
2022/04/01 05:41:47;;;;;;;2.10;1.90;;;4.00;99.00;;;;;;5048860;28;20260;-90
2022/04/01 05:44:15;;;;;;;2.03;1.83;;;4.00;98.10;;;;;;5050475;28;20197;-88
2022/04/01 05:46:42;;;;;;;2.00;1.90;;;4.00;97.90;;;;;;5041946;28;20233;-90
2022/04/01 05:49:13;;;;;;;1.93;1.80;;;4.00;97.70;;;;;;5040211;28;20270;-88
2022/04/01 05:51:43;;;;;;;4.20;1.90;;;4.00;97.50;;;;;;5030934;28;20241;-88
2022/04/01 05:54:10;;;;;;;1.87;1.70;;;4.00;97.80;;;;;;5048955;28;20289;-88
2022/04/01 05:56:39;;;;;;;2.10;1.90;;;4.00;98.20;;;;;;5023213;28;20314;-88
2022/04/01 05:59:06;;;;;;;2.20;1.97;;;3.90;97.50;;;;;;5043447;28;20209;-89
2022/04/01 06:01:45;;;;;;;2.10;1.90;;;4.00;98.20;;;;;;5030684;28;20218;-88
2022/04/01 06:04:53;;;;;;;3.17;1.90;;;4.00;98.40;;;;;;5021810;28;20203;-88
2022/04/01 06:07:37;;;;;;;1.80;1.70;;;4.10;99.00;;;;;;5017220;28;20298;-89
2022/04/01 06:10:09;;;;;;;1.80;1.70;;;4.10;98.20;;;;;;5018103;28;20230;-88
2022/04/01 06:16:12;;;;;;;1.40;1.30;;;4.20;97.10;;;;;;5031835;28;20234;-88
2022/04/01 06:18:53;;;;;;;1.60;1.50;;;4.20;97.50;;;;;;5024136;28;20251;-90
2022/04/01 06:21:25;;;;;;;1.70;1.60;;;4.10;97.50;;;;;;5027660;28;20230;-90
2022/04/01 06:24:08;;;;;;;1.77;1.67;;;4.10;97.10;;;;;;5018435;28;20213;-93
2022/04/01 06:29:39;;;;;;;1.50;1.40;;;4.20;97.80;;;;;;5001717;28;20640;-88
2022/04/01 06:32:09;;;;;;;1.87;1.50;;;4.10;97.50;;;;;;4994205;28;20223;-88
2022/04/01 06:34:56;;;;;;;1.73;1.63;;;4.20;97.80;;;;;;5013768;28;20215;-89
2022/04/01 06:37:29;;;;;;;3.63;1.60;;;4.20;97.70;;;;;;5010677;28;20230;-86
2022/04/01 06:40:04;;;;;;;1.63;1.50;;;4.00;97.40;;;;;;4976375;28;20286;-89
2022/04/01 06:42:33;;;;;;;1.50;1.40;;;4.10;98.10;;;;;;5009247;28;20203;-88
2022/04/01 06:45:01;;;;;;;1.57;1.47;;;4.10;97.50;;;;;;5015592;28;20219;-90
2022/04/01 06:47:29;;;;;;;1.53;1.40;;;4.00;98.10;;;;;;5014923;28;20195;-88
2022/04/01 06:49:58;;;;;;;1.80;1.60;;;4.20;97.90;;;;;;4996903;28;20211;-89
2022/04/01 06:55:10;;;;;;;2.27;1.60;;;4.40;97.20;;;;;;4992972;28;20231;-91
2022/04/01 07:04:25;;;;;;;3.67;1.67;;;4.60;96.40;;;;;;5019627;28;20188;-86
2022/04/01 07:10:16;;;;;;;1.50;1.20;;;4.50;97.00;;;;;;5023705;28;20246;-85
2022/04/01 07:12:43;;;;;;;1.93;1.53;;;4.50;96.30;;;;;;5020340;28;20203;-83
2022/04/01 07:15:11;;;;;;;1.50;1.40;;;4.40;96.60;;;;;;5007612;28;20231;-84
2022/04/01 07:17:39;;;;;;;1.67;1.40;;;4.70;96.60;;;;;;5012382;28;20208;-90
2022/04/01 07:20:10;;;;;;;1.50;1.40;;;4.70;96.10;;;;;;4994283;28;20251;-86
2022/04/01 07:22:38;;;;;;;1.40;1.30;;;4.80;95.80;;;;;;5024735;28;20203;-86
2022/04/01 07:25:06;;;;;;;1.63;1.53;;;4.60;95.60;;;;;;5029759;28;20230;-86
2022/04/01 07:27:35;;;;;;;1.30;1.20;;;4.50;95.90;;;;;;5026154;28;20254;-88
2022/04/01 07:30:19;;;;;;;1.40;1.30;;;4.50;96.00;;;;;;5005704;28;20226;-91
2022/04/01 07:35:29;;;;;;;1.30;1.20;;;4.70;95.90;;;;;;5023696;28;20246;-91
2022/04/01 07:37:59;;;;;;;2.03;1.30;;;4.80;95.50;;;;;;5020283;28;20196;-90
2022/04/01 07:40:26;;;;;;;1.40;1.30;;;4.80;95.00;;;;;;5030969;28;20230;-88
2022/04/01 07:43:02;;;;;;;1.40;1.30;;;4.80;95.00;;;;;;5009819;28;20207;-89
2022/04/01 07:45:33;;;;;;;2.33;1.27;;;4.80;95.00;;;;;;5015707;28;20674;-89
2022/04/01 07:48:01;;;;;;;1.00;1.00;;;4.80;95.00;;;;;;5006352;28;20199;-89
2022/04/01 07:50:29;;;;;;;1.47;1.37;;;4.90;95.00;;;;;;5016530;28;20226;-86
2022/04/01 07:52:57;;;;;;;1.30;1.20;;;4.90;95.10;;;;;;4999843;28;20223;-85
2022/04/01 07:55:26;;;;;;;1.47;1.17;;;5.00;95.10;;;;;;4999860;28;20258;-85
2022/04/01 07:57:57;;;;;;;1.23;1.13;;;5.00;94.70;;;;;;5012421;28;20199;-87
2022/04/01 08:00:26;;;;;;;1.13;1.10;;;5.00;95.10;;;;;;5003017;28;20219;-85
2022/04/01 08:02:57;;;;;;;3.20;1.20;;;5.00;95.10;;;;;;5006531;28;20207;-84
2022/04/01 08:05:24;;;;;;;1.13;0.80;;;5.20;94.80;;;;;;5007902;28;20680;-85
2022/04/01 08:07:51;;;;;;;1.10;1.00;;;5.30;93.90;;;;;;5010963;28;20199;-85
2022/04/01 08:10:18;;;;;;;1.00;1.00;;;5.30;94.20;;;;;;5003793;28;20222;-85
2022/04/01 08:12:45;;;;;;;1.10;1.00;;;5.20;94.10;;;;;;5010849;28;20203;-85
2022/04/01 08:15:14;;;;;;;2.13;0.97;;;5.30;94.10;;;;;;5011810;28;20251;-85
2022/04/01 08:17:42;;;;;;;0.90;0.90;;;5.20;94.00;;;;;;5013475;28;20213;-85
2022/04/01 08:20:12;;;;;;;1.40;0.97;;;5.10;93.90;;;;;;5002347;28;20235;-85
2022/04/01 08:22:39;;;;;;;1.00;0.97;;;5.00;94.50;;;;;;4987861;28;20205;-85
2022/04/01 08:25:07;;;;;;;1.20;1.07;;;5.00;95.10;;;;;;5011053;28;20227;-87
2022/04/01 08:27:35;;;;;;;1.20;1.10;;;5.10;95.10;;;;;;5008490;28;20230;-85
2022/04/01 08:30:02;;;;;;;1.00;1.00;;;5.30;93.90;;;;;;5013585;28;20223;-85
2022/04/01 08:32:37;;;;;;;1.63;0.97;;;5.30;93.80;;;;;;5017633;28;20231;-86
2022/04/01 08:35:07;;;;;;;1.10;1.00;;;5.20;93.90;;;;;;5015152;28;20218;-85
2022/04/01 08:37:35;;;;;;;1.60;0.93;;;5.30;93.30;;;;;;5016343;28;20202;-86
2022/04/01 08:40:04;;;;;;;2.10;1.00;;;5.30;93.70;;;;;;5008928;28;20241;-85
2022/04/01 08:42:32;;;;;;;1.30;1.07;;;5.30;93.30;;;;;;4996011;28;20203;-85
2022/04/01 08:45:02;;;;;;;1.00;1.00;;;5.40;93.60;;;;;;5003609;28;20230;-86
2022/04/01 08:47:29;;;;;;;1.13;1.03;;;5.60;93.70;;;;;;5017228;28;20195;-87
2022/04/01 08:49:59;;;;;;;0.80;0.80;;;5.80;93.00;;;;;;5000403;28;20223;-88
2022/04/01 08:52:26;;;;;;;1.10;0.90;;;5.80;92.80;;;;;;4999486;28;20220;-88
2022/04/01 08:54:55;;;;;;;1.17;0.83;;;5.80;93.40;;;;;;4994943;28;20290;-87
2022/04/01 08:57:23;;;;;;;1.50;1.00;;;6.20;93.60;;;;;;5016068;28;20566;-87
2022/04/01 08:59:51;;;;;;;1.10;1.00;;;6.30;93.00;;;;;;5003382;28;20251;-88
2022/04/01 09:02:19;;;;;;;0.87;0.80;;;6.40;92.00;;;;;;4988298;28;20208;-89
2022/04/01 09:04:51;;;;;;;0.80;0.80;;;6.50;91.10;;;;;;4958155;28;20232;-90
2022/04/01 09:07:27;;;;;;;1.03;0.93;;;6.40;91.50;;;;;;4989950;28;20200;-90
2022/04/01 09:10:02;;;;;;;0.80;0.80;;;6.50;91.60;;;;;;4982688;28;20235;-91
2022/04/01 09:12:29;;;;;;;0.67;0.67;;;6.50;90.60;;;;;;4990431;28;20227;-92
2022/04/01 09:14:58;;;;;;;1.33;1.13;;;6.50;91.40;;;;;;4989322;28;20228;-90
2022/04/01 09:17:41;;;;;;;1.10;1.00;;;6.70;91.40;;;;;;4970325;28;20203;-91
2022/04/01 09:20:10;;;;;;;1.17;0.90;;;6.80;92.10;;;;;;4981896;28;20232;-91
2022/04/01 09:22:41;;;;;;;1.40;0.90;;;6.80;91.80;;;;;;4986260;28;20208;-91
2022/04/01 09:25:10;;;;;;;1.00;0.90;;;7.00;90.00;;;;;;4985249;28;20227;-91
2022/04/01 09:27:43;;;;;;;1.00;0.87;;;6.70;90.60;;;;;;4995210;28;20682;-91
2022/04/01 09:30:13;;;;;;;0.90;0.90;;;6.60;91.20;;;;;;4984617;28;20306;-91
2022/04/01 09:32:42;;;;;;;2.27;1.70;;;6.40;91.20;;;;;;4982734;28;20224;-89
2022/04/01 09:35:11;;;;;;;4.37;1.40;;;6.50;92.40;;;;;;4984536;28;20238;-90
2022/04/01 09:37:42;;;;;;;1.20;0.87;;;6.30;91.60;;;;;;4991182;28;20250;-92
2022/04/01 09:40:11;;;;;;;0.70;0.70;;;6.20;91.20;;;;;;4981208;28;20573;-90
2022/04/01 09:43:32;;;;;;;1.27;1.17;;;6.40;91.60;;;;;;4985835;28;20215;-91
2022/04/01 09:46:05;;;;;;;1.10;1.00;;;6.40;91.30;;;;;;4981765;28;20228;-91
2022/04/01 09:48:41;;;;;;;2.83;1.10;;;6.30;91.80;;;;;;4989784;28;20200;-92
2022/04/01 09:51:11;;;;;;;1.30;1.20;;;6.10;92.00;;;;;;4980454;28;20239;-91
2022/04/01 09:53:50;;;;;;;1.20;1.10;;;6.00;91.70;;;;;;4969999;28;20200;-91
2022/04/01 09:56:17;;;;;;;1.10;1.00;;;5.80;91.60;;;;;;4986197;28;20227;-91
2022/04/01 09:58:45;;;;;;;1.20;1.10;;;5.70;92.50;;;;;;4993983;28;20200;-91
2022/04/01 10:01:12;;;;;;;1.60;1.07;;;5.70;92.50;;;;;;4985606;28;20223;-90
2022/04/01 10:03:39;;;;;;;4.00;1.10;;;5.90;93.20;;;;;;4988780;28;20204;-91
2022/04/01 10:06:10;;;;;;;1.17;1.00;;;6.10;92.40;;;;;;4984066;28;20224;-92
2022/04/01 10:08:37;;;;;;;2.30;1.30;;;6.20;91.70;;;;;;4993526;28;20656;-91
2022/04/01 10:11:06;;;;;;;1.23;0.80;;;6.10;91.60;;;;;;4997539;28;20243;-91
2022/04/01 10:14:25;;;;;;;1.00;1.00;;;5.90;91.90;;;;;;4998890;28;20606;-91
2022/04/01 10:16:56;;;;;;;1.63;0.90;;;5.90;93.50;;;;;;4982558;28;20283;-92
2022/04/01 10:19:29;;;;;;;1.60;0.70;;;5.90;92.30;;;;;;4997902;28;20591;-91
2022/04/01 10:21:56;;;;;;;0.80;0.80;;;5.60;92.30;;;;;;4974128;28;20267;-91
2022/04/01 10:24:34;;;;;;;1.23;0.80;;;5.50;93.50;;;;;;4988279;28;20216;-91
2022/04/01 10:30:47;;;;;;;1.87;0.90;;;5.80;92.40;;;;;;4987497;28;20236;-88
2022/04/01 10:36:47;;;;;;;1.30;1.20;;;5.80;93.00;;;;;;5010592;28;20585;-86
2022/04/01 10:39:19;;;;;;;0.90;0.90;;;5.80;94.00;;;;;;5000797;28;20232;-88
2022/04/01 10:53:41;;;;;;;1.10;1.00;;;5.80;91.60;;;;;;4997977;28;20286;-87
2022/04/01 10:56:29;;;;;;;1.47;1.20;;;5.80;91.80;;;;;;4986404;28;20212;-87
2022/04/01 11:05:28;;;;;;;0.87;0.87;;;5.30;93.30;;;;;;5007809;28;20249;-90
2022/04/01 11:08:19;;;;;;;2.87;1.30;;;5.20;92.60;;;;;;4992617;28;20207;-86
2022/04/01 11:16:49;;;;;;;1.43;1.10;;;5.50;93.00;;;;;;4993597;28;20192;-90
2022/04/01 11:23:19;;;;;;;1.40;1.30;;;5.30;92.60;;;;;;4991454;28;20233;-88
2022/04/01 11:25:57;;;;;;;1.33;1.23;;;5.30;92.60;;;;;;4986979;28;20233;-90
2022/04/01 11:28:45;;;;;;;1.17;1.07;;;5.30;93.10;;;;;;4975184;28;20286;-88
2022/04/01 11:31:15;;;;;;;1.33;1.00;;;5.20;92.90;;;;;;4977670;28;20227;-87
2022/04/01 11:36:38;;;;;;;0.97;0.97;;;5.50;93.30;;;;;;4978039;28;20216;-89
2022/04/01 11:39:22;;;;;;;1.13;1.03;;;5.60;92.40;;;;;;5000980;28;20211;-90
2022/04/01 11:42:14;;;;;;;1.47;1.20;;;5.80;92.10;;;;;;4998530;28;20224;-90
2022/04/01 11:45:09;;;;;;;1.73;1.30;;;6.10;91.60;;;;;;5001204;28;20207;-88
2022/04/01 11:47:37;;;;;;;1.07;1.07;;;6.20;91.60;;;;;;5006554;28;20219;-88
2022/04/01 11:50:09;;;;;;;1.00;1.00;;;6.00;91.40;;;;;;4978542;28;20291;-88
2022/04/01 11:53:17;;;;;;;0.97;0.87;;;5.90;91.30;;;;;;5002395;28;20246;-91
2022/04/01 11:55:50;;;;;;;1.33;1.10;;;6.00;91.30;;;;;;5024205;28;20595;-86
2022/04/01 11:58:19;;;;;;;1.00;1.00;;;6.20;90.80;;;;;;5020452;28;20290;-89
2022/04/01 12:00:48;;;;;;;1.57;1.20;;;6.10;91.20;;;;;;5006019;28;20694;-89
2022/04/01 12:03:30;;;;;;;1.00;1.00;;;6.20;90.70;;;;;;4985972;28;20204;-88
2022/04/01 12:08:41;;;;;;;1.40;1.30;;;6.00;91.10;;;;;;4988575;28;20243;-87
2022/04/01 12:08:49;;;;;;;2.37;1.17;;;6.00;91.60;;;;;;5006488;28;20196;-90
2022/04/01 12:14:00;;;;;;;1.20;1.10;;;6.20;90.90;;;;;;5004460;28;20212;-89
2022/04/01 12:16:27;;;;;;;1.40;1.30;;;6.20;90.10;;;;;;4997486;28;20224;-88
2022/04/01 12:18:59;;;;;;;1.50;1.40;;;6.10;91.10;;;;;;5001048;28;20213;-88
2022/04/01 12:21:27;;;;;;;1.50;1.40;;;6.10;89.70;;;;;;5000767;28;20222;-87
2022/04/01 12:23:54;;;;;;;2.07;1.50;;;6.10;90.40;;;;;;5001545;28;20499;-88
2022/04/01 12:26:28;;;;;;;1.73;1.30;;;6.20;90.70;;;;;;5001156;28;20234;-88
2022/04/01 12:28:57;;;;;;;1.50;1.40;;;6.20;90.40;;;;;;4981410;28;20247;-89
2022/04/01 12:31:26;;;;;;;1.47;1.37;;;6.40;89.80;;;;;;4988309;28;20299;-89
2022/04/01 12:33:57;;;;;;;1.33;1.20;;;6.50;89.90;;;;;;4978558;28;20239;-89
2022/04/01 12:36:36;;;;;;;2.10;1.60;;;6.30;89.80;;;;;;4980870;28;20235;-87
2022/04/01 12:39:10;;;;;;;2.03;1.40;;;6.20;90.50;;;;;;4995361;28;20201;-88
2022/04/01 12:41:50;;;;;;;2.17;1.50;;;6.10;91.20;;;;;;4992754;28;20230;-87
2022/04/01 12:44:17;;;;;;;1.37;1.27;;;5.90;90.70;;;;;;4995247;28;20251;-87
2022/04/01 12:46:55;;;;;;;1.30;1.20;;;5.90;90.60;;;;;;4987123;28;20303;-90
2022/04/01 12:49:24;;;;;;;1.40;1.30;;;6.10;91.20;;;;;;4999433;28;20283;-90
2022/04/01 12:52:07;;;;;;;2.37;1.43;;;5.90;90.60;;;;;;4997848;28;20557;-88
2022/04/01 12:54:39;;;;;;;1.63;1.30;;;5.80;90.60;;;;;;4993428;28;20200;-89
2022/04/01 12:57:36;;;;;;;1.33;1.23;;;5.80;91.70;;;;;;4991380;28;20721;-88
2022/04/01 13:00:14;;;;;;;1.30;1.20;;;6.10;91.40;;;;;;4996590;28;20231;-87
2022/04/01 13:02:45;;;;;;;1.53;1.20;;;6.10;89.70;;;;;;4991285;28;20276;-88
2022/04/01 13:05:13;;;;;;;1.17;1.07;;;6.20;90.70;;;;;;4998672;28;20259;-87
2022/04/01 13:07:52;;;;;;;1.30;1.10;;;6.20;89.70;;;;;;5013396;28;20224;-87
2022/04/01 13:10:38;;;;;;;0.87;0.87;;;6.10;90.60;;;;;;4998456;28;20235;-87
2022/04/01 13:13:20;;;;;;;1.20;1.10;;;6.40;89.80;;;;;;5007426;28;20251;-88
2022/04/01 13:16:05;;;;;;;1.57;1.20;;;6.30;89.80;;;;;;4989046;28;20236;-88
2022/04/01 13:18:39;;;;;;;1.70;1.10;;;6.50;87.00;;;;;;5000177;28;20215;-89
2022/04/01 13:21:07;;;;;;;1.27;1.20;;;6.40;89.00;;;;;;4996298;28;20219;-88
2022/04/01 13:23:35;;;;;;;1.50;1.40;;;6.40;86.90;;;;;;5006512;28;20210;-89
2022/04/01 13:26:03;;;;;;;1.40;1.30;;;6.50;89.90;;;;;;4996069;28;20673;-84
2022/04/01 13:28:33;;;;;;;1.30;1.20;;;6.50;89.40;;;;;;5006731;28;20223;-88
2022/04/01 13:31:05;;;;;;;1.20;1.10;;;6.20;88.10;;;;;;5012633;28;20228;-85
2022/04/01 13:33:33;;;;;;;1.23;1.10;;;6.00;89.60;;;;;;5020343;28;20313;-87
2022/04/01 13:36:06;;;;;;;1.60;1.00;;;6.00;90.20;;;;;;5003873;28;20225;-87
2022/04/01 13:38:41;;;;;;;1.27;1.17;;;5.80;89.50;;;;;;4995387;28;20299;-88
2022/04/01 13:41:08;;;;;;;1.30;1.20;;;5.80;89.50;;;;;;4985529;28;20634;-86
2022/04/01 13:43:40;;;;;;;2.00;1.30;;;5.90;90.80;;;;;;4993487;28;20679;-85
2022/04/01 13:46:14;;;;;;;1.57;1.23;;;6.00;89.80;;;;;;5001615;28;20227;-85
2022/04/01 13:48:42;;;;;;;1.30;1.20;;;5.90;90.40;;;;;;5014472;28;20198;-86
2022/04/01 13:51:09;;;;;;;1.27;1.20;;;5.70;90.00;;;;;;5005702;28;20270;-87
2022/04/01 13:53:36;;;;;;;1.37;1.27;;;5.80;90.60;;;;;;5000889;28;20224;-87
2022/04/01 13:56:05;;;;;;;1.50;1.40;;;5.60;90.10;;;;;;4996689;28;20235;-89
2022/04/01 13:58:32;;;;;;;1.60;1.40;;;5.50;90.60;;;;;;4998930;28;20615;-86
2022/04/01 14:01:03;;;;;;;1.43;1.33;;;5.40;91.30;;;;;;5005567;28;20250;-86
2022/04/01 14:03:30;;;;;;;2.10;1.40;;;5.40;90.20;;;;;;5013604;28;20207;-86
2022/04/01 14:05:57;;;;;;;1.57;1.47;;;5.30;91.10;;;;;;5014340;28;20234;-86
2022/04/01 14:08:24;;;;;;;2.73;1.50;;;5.20;91.10;;;;;;5010564;28;20565;-86
2022/04/01 14:10:51;;;;;;;2.23;1.33;;;5.20;91.20;;;;;;4998833;28;20646;-82
2022/04/01 14:13:18;;;;;;;1.43;1.33;;;5.10;92.70;;;;;;5004925;28;20644;-82
2022/04/01 14:15:45;;;;;;;3.37;1.50;;;5.00;92.20;;;;;;4994658;28;20223;-83
2022/04/01 14:18:14;;;;;;;1.60;1.50;;;5.10;92.70;;;;;;4973153;28;20208;-83
2022/04/01 14:20:41;;;;;;;2.10;1.50;;;5.10;92.60;;;;;;4980522;28;20231;-83
2022/04/01 14:23:08;;;;;;;1.43;1.33;;;5.10;92.20;;;;;;4986606;28;20666;-84
2022/04/01 14:25:38;;;;;;;1.70;1.60;;;5.00;91.90;;;;;;4972908;28;22033;-87
2022/04/01 14:28:13;;;;;;;1.33;1.23;;;5.00;92.30;;;;;;4980476;28;20296;-87
2022/04/01 14:30:40;;;;;;;1.60;1.50;;;5.10;92.40;;;;;;4994548;28;20228;-86
2022/04/01 14:33:09;;;;;;;1.60;1.50;;;5.00;92.00;;;;;;4972815;28;20244;-86
2022/04/01 14:35:40;;;;;;;1.60;1.50;;;4.80;92.60;;;;;;5000680;28;20223;-86
2022/04/01 14:38:10;;;;;;;1.60;1.50;;;4.80;93.10;;;;;;5001241;28;20208;-86
2022/04/01 14:40:38;;;;;;;1.53;1.43;;;4.80;93.40;;;;;;4993070;28;20216;-87
2022/04/01 14:43:05;;;;;;;1.80;1.60;;;4.90;93.70;;;;;;4981774;28;20791;-86
2022/04/01 14:45:32;;;;;;;1.57;1.47;;;5.10;93.70;;;;;;4986166;28;20262;-88
2022/04/01 14:47:59;;;;;;;1.90;1.80;;;5.20;93.60;;;;;;5007120;28;20238;-91
2022/04/01 14:50:29;;;;;;;2.50;1.60;;;5.10;94.00;;;;;;4988051;28;20223;-89
2022/04/01 14:52:57;;;;;;;1.80;1.70;;;5.10;94.00;;;;;;5006354;28;20236;-86
2022/04/01 14:55:24;;;;;;;2.27;1.43;;;5.10;93.50;;;;;;5006875;28;20242;-87
2022/04/01 14:57:52;;;;;;;2.53;1.87;;;5.30;92.90;;;;;;5006272;28;20203;-87
2022/04/01 15:00:20;;;;;;;1.80;1.50;;;5.40;93.10;;;;;;4980691;28;20279;-88
2022/04/01 15:02:47;;;;;;;1.40;1.30;;;5.30;94.00;;;;;;4994636;28;20214;-88